createdAt,value
2023-04-12T00:01:15.136Z,10.9
2023-04-12T00:07:09.828Z,10.9
2023-04-12T00:12:59.149Z,11
2023-04-12T00:18:52.061Z,11
2023-04-12T00:24:44.053Z,10.9
2023-04-12T00:30:38.461Z,10.9
2023-04-12T00:36:34.854Z,10.9
2023-04-12T00:42:28.430Z,10.7
2023-04-12T00:48:29.850Z,10.9
2023-04-12T00:54:23.999Z,10.8
2023-04-12T01:00:16.242Z,10.8
2023-04-12T01:06:09.112Z,10.5
2023-04-12T01:12:07.347Z,10.7
2023-04-12T01:17:58.668Z,10.6
2023-04-12T01:24:00.760Z,10.5
2023-04-12T01:30:02.490Z,10.6
2023-04-12T01:36:07.891Z,10.3
2023-04-12T01:42:03.943Z,10.5
2023-04-12T01:48:01.284Z,10.4
2023-04-12T01:54:08.373Z,10.5
2023-04-12T02:00:27.558Z,10.2
2023-04-12T02:06:18.850Z,10.2
2023-04-12T02:12:15.796Z,10
2023-04-12T02:18:19.325Z,10
2023-04-12T02:24:18.788Z,9.8
2023-04-12T02:30:37.218Z,9.9
2023-04-12T02:36:39.244Z,9.8
2023-04-12T02:42:36.684Z,9.9
2023-04-12T02:48:42.706Z,9.6
2023-04-12T02:54:37.079Z,9.7
2023-04-12T03:00:34.629Z,9.6
2023-04-12T03:06:38.851Z,9.6
2023-04-12T03:12:40.982Z,9.5
2023-04-12T03:18:35.236Z,9.3
2023-04-12T03:24:30.891Z,9.4
2023-04-12T03:30:24.455Z,9.4
2023-04-12T06:55:38.726Z,9.1
2023-04-12T09:51:35.534Z,11.3
2023-04-12T10:03:42.589Z,11.2
2023-04-12T11:56:45.633Z,11.7
2023-04-12T12:03:07.449Z,11.6
2023-04-12T12:40:35.339Z,12.4
2023-04-12T13:11:03.214Z,12.4
2023-04-12T13:16:55.758Z,12.4
2023-04-12T13:29:00.871Z,13
2023-04-12T13:34:59.550Z,13.3
2023-04-12T13:40:54.612Z,13.3
2023-04-12T13:46:57.370Z,13.5
2023-04-12T14:06:50.385Z,13.5
2023-04-12T14:12:42.398Z,13.5
2023-04-12T14:18:34.469Z,13.6
2023-04-12T14:24:29.298Z,13.9
2023-04-12T14:30:29.610Z,13.7
2023-04-12T14:36:28.656Z,13.9
2023-04-12T14:42:27.810Z,13.6
2023-04-12T14:48:25.510Z,13.6
2023-04-12T14:54:20.432Z,13.8
2023-04-12T15:00:17.733Z,13.7
2023-04-12T15:38:16.094Z,12.3
2023-04-12T16:20:44.647Z,11.9
2023-04-12T16:32:44.461Z,11.8
2023-04-12T16:44:33.082Z,10.7
2023-04-12T16:50:32.353Z,10.7
2023-04-12T16:57:10.099Z,10.1
2023-04-12T17:03:04.371Z,10.3
2023-04-12T17:09:12.040Z,9.9
2023-04-12T17:15:09.211Z,9.9
2023-04-12T17:21:07.485Z,10
2023-04-12T17:27:01.173Z,9.8
2023-04-12T17:32:57.515Z,9.7
2023-04-12T17:38:50.463Z,9.7
2023-04-12T17:44:44.720Z,9.6
2023-04-12T17:50:37.959Z,9.4
2023-04-12T17:56:30.518Z,9.5
2023-04-12T18:02:23.097Z,9.6
2023-04-12T18:08:19.415Z,9.6
2023-04-12T18:20:36.414Z,9.8
2023-04-12T18:26:30.599Z,9.6
2023-04-12T18:38:31.656Z,9.7
2023-04-12T18:44:38.617Z,9.5
2023-04-12T18:50:30.208Z,9.6
2023-04-12T18:56:32.934Z,9.4
2023-04-12T19:02:34.065Z,9.2
2023-04-12T19:08:32.718Z,9.2
2023-04-12T19:38:53.495Z,8.9
2023-04-12T19:51:29.775Z,8.7
2023-04-12T19:57:27.175Z,8.9
2023-04-12T20:03:38.523Z,8.8
2023-04-12T20:09:30.011Z,8.7
2023-04-12T20:15:21.415Z,8.6
2023-04-12T20:33:58.348Z,8.6
2023-04-12T20:40:32.871Z,8.6
2023-04-12T22:04:36.932Z,8.2
2023-04-12T22:16:47.505Z,8.2
2023-04-12T23:23:20.282Z,7.4
